01:58 Rennrad Moetz - Apfelstr - Oetztal Bhf - Doerfer - Voels - Ibk Jojo
Ort Moetz Datum 12.08.2017 15:28:46
Kategorie Rennrad
Distanz 60,48 Kilometer Steigung 294,0 Meter Gefälle -305,0 Meter
Gesamt Zeit 02:00:58 Aktiv 01:58:16 Pause 00:02:42
Durchs. Tempo 30,7 km/h Tempo max. 52,3 km/h Tempo min. 6,7 km/h
Kalorien 0 Durchs. HF 125 BPM HF max. 154 BPM
Wetter 17 °C Clouds Min/Max: 16,4 °C/17,3 °C; Druck: 1021,4 mbar; Rel. Feuchte: 78,9%; Taupunkt: 12,9 °C; Windgeschwindigkeit: 2,6 km/h; Niederschlag: 0,0mm
Ausrüstung Bontrager - RL Road
Scott - Addict 20
Notiz Moetz - Apfelstr - Oetztal Bhf - Doerfer - Voels - Ibk Jojo ... trocken, feines Radlwetter, von Oetztal Bhf bis Innsbruck leichter bis mittlerer Gegenwind - locker ... garmin connect
Splits
Distanz (km) Gesamt Zeit Split Zeit Split Tempo Split Tempo Höhenprofil (m)
1,00 00:02:13 00:02:13 00:02:13 27,0 -1,53
2,00 00:04:03 00:01:50 00:01:50 32,7 2,38
3,00 00:05:56 00:01:53 00:01:53 31,9 5,67
4,00 00:07:46 00:01:49 00:01:50 32,9 1,26
5,00 00:09:27 00:01:41 00:01:41 35,5 -1,61
6,00 00:11:11 00:01:43 00:01:44 34,8 3,44
7,00 00:13:00 00:01:49 00:01:49 32,9 0,73
8,00 00:14:52 00:01:51 00:01:52 32,2 8,07
9,00 00:16:58 00:02:06 00:02:06 28,5 10,67
10,00 00:19:02 00:02:04 00:02:04 29,0 2,84
11,00 00:21:08 00:02:05 00:02:06 28,6 9,78
12,00 00:22:55 00:01:46 00:01:47 33,6 -7,44
13,00 00:24:35 00:01:40 00:01:40 35,8 -4,73
14,00 00:26:19 00:01:43 00:01:44 34,7 -7,23
15,00 00:28:04 00:01:44 00:01:45 34,3 -1,47
16,00 00:29:51 00:01:46 00:01:47 33,8 -5,70
17,00 00:31:33 00:01:42 00:01:43 35,0 -5,47
18,00 00:33:14 00:01:40 00:01:41 35,8 -9,27
19,00 00:35:03 00:01:48 00:01:49 33,2 -7,66
20,00 00:36:47 00:01:44 00:01:45 34,4 -2,62
21,00 00:38:35 00:01:47 00:01:48 33,4 -0,03
22,00 00:40:24 00:01:48 00:01:49 33,0 -2,27
23,00 00:42:14 00:01:50 00:01:50 32,7 -2,72
24,00 00:44:03 00:01:48 00:01:48 33,2 2,72
25,00 00:45:52 00:01:49 00:01:49 32,9 -2,41
26,00 00:47:41 00:01:48 00:01:48 33,2 -2,58
27,00 00:49:27 00:01:46 00:01:47 33,7 -6,40
28,00 00:51:18 00:01:51 00:01:51 32,4 -2,50
29,00 00:53:15 00:01:56 00:01:56 30,9 -2,23
30,00 00:55:44 00:02:29 00:02:30 24,1 21,33
31,00 00:57:15 00:01:30 00:01:31 39,7 -17,46
32,00 00:59:00 00:01:45 00:01:45 34,2 -5,10
33,00 01:02:07 00:03:06 00:03:06 19,3 40,10
34,00 01:03:37 00:01:30 00:01:31 39,7 -34,73
35,00 01:05:07 00:01:29 00:01:29 40,4 -14,29
36,00 01:07:08 00:02:01 00:02:01 29,7 1,98
37,00 01:09:05 00:01:57 00:01:57 30,6 -2,47
38,00 01:11:17 00:02:11 00:02:12 27,3 5,06
39,00 01:13:19 00:02:02 00:02:02 29,4 0,46
40,00 01:14:56 00:01:36 00:01:36 37,3 -11,24
41,00 01:16:46 00:01:50 00:01:50 32,7 -5,29
42,00 01:18:37 00:01:50 00:01:51 32,5 -0,29
43,00 01:20:28 00:01:51 00:01:51 32,3 -2,27
44,00 01:22:17 00:01:49 00:01:49 32,9 -3,60
45,00 01:24:24 00:02:06 00:02:07 28,4 10,52
46,00 01:26:43 00:02:18 00:02:19 25,9 10,68
47,00 01:28:29 00:01:45 00:01:46 34,1 -13,69
48,00 01:30:09 00:01:40 00:01:40 35,9 -11,67
49,00 01:32:02 00:01:53 00:01:53 31,8 -2,37
50,00 01:33:59 00:01:56 00:01:56 30,9 -2,22
51,00 01:36:14 00:02:15 00:02:15 26,6 2,20
52,00 01:38:10 00:01:55 00:01:56 31,1 -8,88
53,00 01:40:00 00:01:49 00:01:50 32,8 -2,65
54,00 01:41:48 00:01:48 00:01:48 33,2 -1,44
55,00 01:43:39 00:01:50 00:01:51 32,5 -2,45
56,00 01:45:50 00:02:10 00:02:11 27,5 2,71
57,00 01:47:57 00:02:06 00:02:07 28,4 4,40
58,00 01:50:01 00:02:04 00:02:04 29,0 0,91
59,00 01:54:18 00:04:16 00:04:17 14,0 55,54
60,00 01:55:57 00:01:39 00:01:39 36,3 -24,16
60,52 01:58:16 00:02:18 00:04:25 13,6 36,59